الصفحة الرئيسية
METAR-TAF:

METAR-TAF

مطار :

Chinandega, نيكاراغوا

دائرة عرض: 12-38N, خط طول: 087-08W, ارتفاع: 53 متر

مراقبة الطقس الحالي

تاريخ ووقت الإصدار 4ساعات و 32 دقيقة قبل الساعة 22:00UTC
ريح 4 عقدة من الجنوب
درجة الحرارة 29°درجة مئوية
الرطوبة 79%
ضغط 1007 hPa
الرؤية 10 كم أو أكثر
غيوم قليلة على ارتفاع 2400 قدم, مزنة ركامية.
غيوم متفرقة على ارتفاع 2500 قدم, مزن ركامية عمودية.

METAR: MNCH 252200Z 18004KT 9999 FEW024CB SCT025TCU 29/25 Q1007 CB/N TCU/NE/W/NW

زمن: 20:32 (02:32 UTC)


TAF: مفقودة

أرصاد الطقس والتوقعات من أكثر من 4000 مطار (تقارير الطقس للمطار METAR والتنبؤ بالطقس بالمطارTAF).

المحطات المتاحة هي النقط الصفراء والحمراء على الخريطة.

حرك المؤشر فوق النقطة لمعرفة اسم المحطة.

ثم انقر لمعرفة أرصاد وتوقعات الطقس.

لتغيير الخارطة: اضغط على الأزرار الخضراء مع رمز الصليب الأسود للتكبير. على الزر الأخضر مع شرطة للتصغير، أو على الأسهم الخضراء للخرائط المجاورة.


METAR-TAF: